createdAt,value
2019-03-29T00:00:26.554Z,50.70
2019-03-29T00:01:26.270Z,51.50
2019-03-29T00:02:26.194Z,51.40
2019-03-29T00:03:26.095Z,51.90
2019-03-29T00:04:26.896Z,52.00
2019-03-29T00:05:25.919Z,52.10
2019-03-29T00:06:25.982Z,51.40
2019-03-29T00:07:38.933Z,51.60
2019-03-29T00:08:25.669Z,51.30
2019-03-29T00:09:25.795Z,51.00
2019-03-29T00:10:25.498Z,49.60
2019-03-29T00:11:25.406Z,51.10
2019-03-29T00:12:25.436Z,53.00
2019-03-29T00:13:25.233Z,52.80
2019-03-29T00:14:25.159Z,50.80
2019-03-29T00:15:25.222Z,51.00
2019-03-29T00:16:25.913Z,52.20
2019-03-29T00:17:25.073Z,52.70
2019-03-29T00:18:24.806Z,51.20
2019-03-29T00:19:24.719Z,51.70
2019-03-29T00:20:24.640Z,51.40
2019-03-29T00:21:24.548Z,51.20
2019-03-29T00:22:24.476Z,50.30
2019-03-29T00:23:24.383Z,50.20
2019-03-29T00:24:24.297Z,50.00
2019-03-29T00:25:24.261Z,50.30
2019-03-29T00:26:24.941Z,49.90
2019-03-29T00:27:24.067Z,49.00
2019-03-29T00:28:23.964Z,49.20
2019-03-29T00:29:23.907Z,49.60
2019-03-29T00:30:23.783Z,50.00
2019-03-29T00:31:23.692Z,48.80
2019-03-29T00:32:23.617Z,48.70
2019-03-29T00:33:24.028Z,49.10
2019-03-29T00:34:23.432Z,48.40
2019-03-29T00:35:23.355Z,48.40
2019-03-29T00:36:23.262Z,46.00
2019-03-29T00:37:23.196Z,46.80
2019-03-29T00:38:23.225Z,47.00
2019-03-29T00:39:23.005Z,45.50
2019-03-29T00:40:22.928Z,44.40
2019-03-29T00:41:22.834Z,44.00
2019-03-29T00:42:22.761Z,43.20
2019-03-29T00:43:22.666Z,43.00
2019-03-29T00:44:22.577Z,42.10
2019-03-29T00:45:22.495Z,41.30
2019-03-29T00:46:22.428Z,40.30
2019-03-29T00:47:22.337Z,41.90
2019-03-29T00:48:22.245Z,41.60
2019-03-29T00:49:22.156Z,41.50
2019-03-29T00:50:22.066Z,41.10
2019-03-29T00:51:21.974Z,42.00
2019-03-29T00:52:21.911Z,40.70
2019-03-29T00:53:21.805Z,41.50
2019-03-29T00:54:21.719Z,41.00
2019-03-29T00:55:21.643Z,41.70
2019-03-29T00:56:21.549Z,41.90
2019-03-29T00:57:21.473Z,41.10
2019-03-29T00:58:21.392Z,42.00
2019-03-29T00:59:21.303Z,40.90
2019-03-29T01:00:21.206Z,41.60
2019-03-29T01:01:21.128Z,40.70
2019-03-29T01:02:21.037Z,40.70
2019-03-29T01:03:20.977Z,40.40
2019-03-29T01:04:20.865Z,39.40
2019-03-29T01:05:20.990Z,40.20
2019-03-29T01:06:20.693Z,38.90
2019-03-29T01:07:20.611Z,38.90
2019-03-29T01:08:20.538Z,38.30
2019-03-29T01:09:20.437Z,36.40
2019-03-29T01:10:20.361Z,34.90
2019-03-29T01:11:20.267Z,36.30
2019-03-29T01:12:20.186Z,35.30
2019-03-29T01:13:20.120Z,35.20
2019-03-29T01:14:20.009Z,34.60
2019-03-29T01:15:19.930Z,33.20
2019-03-29T01:16:19.841Z,33.30
2019-03-29T01:17:20.113Z,34.60
2019-03-29T01:18:19.698Z,35.20
2019-03-29T01:19:19.588Z,34.80
2019-03-29T01:20:19.506Z,34.30
2019-03-29T01:21:19.413Z,34.20
2019-03-29T01:22:19.328Z,34.70
2019-03-29T01:23:19.264Z,34.40
2019-03-29T01:24:19.157Z,33.30
2019-03-29T01:25:19.071Z,33.70
2019-03-29T01:26:18.985Z,34.50
2019-03-29T01:27:19.235Z,35.30
2019-03-29T01:28:18.830Z,33.90
2019-03-29T01:29:18.734Z,34.80
2019-03-29T01:30:18.645Z,35.30
2019-03-29T01:31:18.565Z,36.10
2019-03-29T01:32:18.474Z,34.30
2019-03-29T01:33:18.411Z,34.80
2019-03-29T01:34:18.312Z,34.70
2019-03-29T01:35:18.220Z,36.20
2019-03-29T01:36:18.141Z,35.90
2019-03-29T01:37:18.044Z,35.80
2019-03-29T01:38:22.115Z,34.80
2019-03-29T01:39:17.880Z,35.70
2019-03-29T01:40:17.792Z,35.60
2019-03-29T01:41:17.719Z,37.40
2019-03-29T01:42:18.877Z,38.70
2019-03-29T01:43:17.552Z,36.80
2019-03-29T01:44:17.460Z,38.00
2019-03-29T01:45:17.412Z,37.30
2019-03-29T01:46:17.287Z,38.10
2019-03-29T01:47:17.197Z,39.90
2019-03-29T01:48:17.130Z,38.30
2019-03-29T01:49:17.033Z,38.70
2019-03-29T01:50:16.987Z,39.00
2019-03-29T01:51:16.856Z,39.60
2019-03-29T01:52:16.776Z,37.40
2019-03-29T01:53:16.741Z,38.20
2019-03-29T01:54:16.680Z,37.60
2019-03-29T01:55:16.520Z,37.40
2019-03-29T01:56:16.434Z,39.20
2019-03-29T01:57:16.356Z,38.20
2019-03-29T01:58:16.267Z,39.30
2019-03-29T01:59:16.882Z,38.50
2019-03-29T02:00:16.088Z,37.70
2019-03-29T02:01:16.009Z,38.50
2019-03-29T02:02:15.916Z,39.10
2019-03-29T02:03:15.830Z,38.10
2019-03-29T02:04:15.769Z,39.00
2019-03-29T02:05:15.665Z,37.60
2019-03-29T02:06:15.579Z,38.50
2019-03-29T02:07:15.489Z,38.80
2019-03-29T02:08:15.406Z,38.80
2019-03-29T02:09:15.338Z,40.20
2019-03-29T02:10:15.233Z,40.20
2019-03-29T02:11:15.170Z,39.00
2019-03-29T02:12:15.070Z,40.80
2019-03-29T02:13:14.977Z,39.80
2019-03-29T02:14:14.902Z,40.40
2019-03-29T02:15:14.811Z,40.10
2019-03-29T02:16:14.719Z,39.50
2019-03-29T02:17:14.642Z,38.40
2019-03-29T02:18:14.549Z,39.10
2019-03-29T02:19:14.484Z,40.70
2019-03-29T02:20:14.375Z,39.40
2019-03-29T02:21:14.293Z,40.50
2019-03-29T02:22:14.227Z,40.80
2019-03-29T02:23:14.122Z,41.40
2019-03-29T02:24:14.050Z,40.40
2019-03-29T02:25:13.969Z,40.30
2019-03-29T02:26:13.861Z,40.70
2019-03-29T02:27:13.779Z,41.30
2019-03-29T02:28:13.691Z,42.10
2019-03-29T02:29:13.627Z,40.70
2019-03-29T02:30:13.529Z,40.50
2019-03-29T02:31:13.446Z,41.10
2019-03-29T02:32:13.349Z,41.70
2019-03-29T02:33:13.267Z,41.60
2019-03-29T02:34:13.192Z,39.50
2019-03-29T02:35:13.090Z,41.50
2019-03-29T02:36:13.008Z,41.20
2019-03-29T02:37:12.923Z,41.10
2019-03-29T02:38:12.836Z,40.00
2019-03-29T02:39:12.767Z,40.90
2019-03-29T02:40:12.662Z,40.40
2019-03-29T02:41:12.574Z,39.00
2019-03-29T02:42:12.498Z,41.00
2019-03-29T02:43:12.403Z,40.80
2019-03-29T02:44:12.331Z,39.30
2019-03-29T02:45:12.238Z,40.20
2019-03-29T02:46:12.144Z,40.10
2019-03-29T02:47:12.059Z,39.60
2019-03-29T02:48:11.981Z,39.00
2019-03-29T02:49:13.171Z,37.60
2019-03-29T02:50:11.819Z,38.80
2019-03-29T02:51:11.729Z,37.60
2019-03-29T02:52:11.632Z,38.30
2019-03-29T02:53:11.543Z,38.50
2019-03-29T02:54:11.478Z,38.90
2019-03-29T02:55:11.374Z,39.40
2019-03-29T02:56:11.288Z,38.40
2019-03-29T02:57:11.204Z,38.20
2019-03-29T02:58:11.114Z,39.10
2019-03-29T02:59:11.063Z,38.40
2019-03-29T03:00:10.947Z,39.60
2019-03-29T03:01:10.854Z,39.30
2019-03-29T03:02:10.887Z,37.40
2019-03-29T03:03:10.690Z,37.40
2019-03-29T03:04:10.614Z,38.20
2019-03-29T03:05:10.520Z,37.30
2019-03-29T03:06:10.424Z,37.40
2019-03-29T03:07:10.348Z,37.10
2019-03-29T03:08:10.251Z,38.40
2019-03-29T03:09:14.170Z,38.20
2019-03-29T03:10:10.085Z,36.80
2019-03-29T03:11:10.004Z,38.60
2019-03-29T03:12:09.911Z,37.20
2019-03-29T03:13:09.833Z,37.60
2019-03-29T03:14:09.762Z,38.30
2019-03-29T03:15:09.656Z,39.00
2019-03-29T03:16:09.565Z,37.30
2019-03-29T03:17:09.482Z,38.30
2019-03-29T03:18:09.397Z,38.70
2019-03-29T03:19:09.319Z,38.50
2019-03-29T03:20:09.218Z,39.50
2019-03-29T03:21:09.147Z,37.90
2019-03-29T03:22:09.048Z,37.40
2019-03-29T03:23:08.965Z,38.10
2019-03-29T03:24:08.889Z,37.70
2019-03-29T03:25:08.793Z,37.90
2019-03-29T03:26:08.702Z,38.40
2019-03-29T03:27:08.622Z,37.80
2019-03-29T03:28:08.529Z,38.20
2019-03-29T03:29:08.478Z,37.40
2019-03-29T03:30:08.357Z,37.60
2019-03-29T03:31:08.497Z,38.00
2019-03-29T03:32:08.183Z,36.50
2019-03-29T03:33:08.346Z,37.10
2019-03-29T03:34:08.027Z,37.10
2019-03-29T03:35:07.943Z,36.20
2019-03-29T03:36:07.837Z,35.80
2019-03-29T03:37:07.751Z,36.20
2019-03-29T03:38:07.671Z,37.10
2019-03-29T03:39:07.579Z,35.80
2019-03-29T03:40:07.510Z,35.60
2019-03-29T03:41:07.413Z,37.10
2019-03-29T03:42:07.324Z,37.90
2019-03-29T03:43:07.241Z,35.70
2019-03-29T03:44:07.167Z,36.00
2019-03-29T03:45:07.111Z,35.80
2019-03-29T03:46:06.977Z,35.70
2019-03-29T03:47:06.900Z,35.80
2019-03-29T03:48:06.807Z,36.60
2019-03-29T03:49:06.717Z,34.90
2019-03-29T03:50:06.651Z,34.80
2019-03-29T03:51:06.543Z,35.10
2019-03-29T03:52:06.457Z,35.10
2019-03-29T03:53:06.377Z,35.50
2019-03-29T03:54:06.286Z,36.10
2019-03-29T03:55:06.223Z,36.80
2019-03-29T03:56:06.116Z,36.50
2019-03-29T03:57:06.024Z,36.80
2019-03-29T03:58:05.945Z,36.10
2019-03-29T03:59:05.857Z,34.70
2019-03-29T04:00:05.778Z,35.90
2019-03-29T04:01:05.694Z,34.10
2019-03-29T04:02:05.606Z,35.10
2019-03-29T04:03:05.506Z,35.50
2019-03-29T04:04:05.421Z,35.40
2019-03-29T04:05:05.358Z,35.70
2019-03-29T04:06:05.253Z,34.30
2019-03-29T04:07:05.166Z,35.20
2019-03-29T04:08:05.074Z,35.60
2019-03-29T04:09:04.992Z,34.50
2019-03-29T04:10:04.911Z,34.90
2019-03-29T04:11:04.961Z,34.20
2019-03-29T04:12:04.725Z,33.80
2019-03-29T04:13:04.646Z,33.50
2019-03-29T04:14:04.614Z,35.40
2019-03-29T04:15:04.495Z,35.00
2019-03-29T04:16:04.384Z,34.30
2019-03-29T04:17:04.368Z,34.90
2019-03-29T04:18:04.220Z,34.70
2019-03-29T04:19:04.131Z,32.80
2019-03-29T04:20:04.051Z,33.30
2019-03-29T04:21:03.957Z,34.80
2019-03-29T04:22:03.861Z,34.60
2019-03-29T04:23:03.781Z,34.00
2019-03-29T04:24:03.694Z,33.70
2019-03-29T04:25:03.642Z,34.40
2019-03-29T04:26:03.521Z,33.50
2019-03-29T04:27:03.433Z,33.50
2019-03-29T04:28:03.358Z,33.70
2019-03-29T04:29:05.079Z,34.10
2019-03-29T04:30:03.189Z,34.10
2019-03-29T04:31:03.116Z,33.60
2019-03-29T04:32:03.003Z,34.90
2019-03-29T04:33:02.927Z,33.70
2019-03-29T04:34:02.823Z,33.70
2019-03-29T04:35:02.758Z,34.80
2019-03-29T04:36:02.656Z,34.10
2019-03-29T04:37:02.567Z,33.50
2019-03-29T04:38:02.495Z,33.70
2019-03-29T04:39:02.389Z,32.30
2019-03-29T04:40:07.778Z,33.30
2019-03-29T04:41:02.232Z,33.20
2019-03-29T04:42:02.230Z,32.90
2019-03-29T04:43:02.045Z,33.20
2019-03-29T04:44:01.970Z,32.00
2019-03-29T04:45:01.895Z,32.90
2019-03-29T04:46:01.808Z,32.90
2019-03-29T04:47:01.715Z,31.20
2019-03-29T04:48:01.614Z,32.20
2019-03-29T04:49:01.535Z,32.20
2019-03-29T04:50:01.461Z,32.10
2019-03-29T04:51:01.357Z,32.10
2019-03-29T04:52:01.264Z,32.80
2019-03-29T04:53:01.186Z,31.60
2019-03-29T04:54:01.094Z,32.30
2019-03-29T04:55:01.030Z,33.00
2019-03-29T04:56:00.918Z,31.70
2019-03-29T04:57:00.835Z,32.00
2019-03-29T04:58:00.751Z,32.50
2019-03-29T04:59:00.667Z,32.70
2019-03-29T05:00:00.584Z,31.00
2019-03-29T05:01:00.517Z,33.40
2019-03-29T05:02:00.401Z,31.90
2019-03-29T05:03:00.311Z,31.90
2019-03-29T05:04:00.303Z,31.00
2019-03-29T05:05:00.363Z,31.20
2019-03-29T05:06:00.058Z,31.80
2019-03-29T05:06:59.981Z,32.30
2019-03-29T05:07:59.885Z,32.40
2019-03-29T05:08:59.811Z,30.80
2019-03-29T05:09:59.723Z,31.00
2019-03-29T05:10:59.735Z,32.00
2019-03-29T05:11:59.531Z,32.20
2019-03-29T05:12:59.795Z,32.20
2019-03-29T05:13:59.364Z,32.00
2019-03-29T05:14:59.384Z,33.40
2019-03-29T05:15:59.190Z,32.80
2019-03-29T05:16:59.159Z,32.00
2019-03-29T05:17:59.015Z,33.50
2019-03-29T05:18:58.928Z,33.20
2019-03-29T05:19:58.911Z,32.90
2019-03-29T05:20:58.761Z,33.10
2019-03-29T05:21:59.279Z,32.70
2019-03-29T05:22:58.687Z,32.30
2019-03-29T05:23:58.490Z,32.70
2019-03-29T05:25:01.923Z,33.70
2019-03-29T05:25:58.318Z,33.20
2019-03-29T05:26:58.305Z,32.40
2019-03-29T05:27:58.150Z,33.60
2019-03-29T05:28:58.118Z,33.30
2019-03-29T05:29:57.982Z,33.00
2019-03-29T05:30:58.954Z,33.20
2019-03-29T05:31:57.798Z,33.70
2019-03-29T05:32:57.716Z,32.80
2019-03-29T05:33:57.742Z,33.10
2019-03-29T05:34:57.542Z,32.90
2019-03-29T05:35:57.466Z,31.50
2019-03-29T05:36:58.554Z,33.30
2019-03-29T05:37:57.281Z,32.20
2019-03-29T05:38:57.191Z,33.80
2019-03-29T05:39:57.128Z,34.40
2019-03-29T05:40:57.018Z,33.40
